Terminal Aerodrome Forecast
Issued by NWS

Home | Current Version | Previous Version | Text Only | Print | Product List | Glossary On
Versions: 1 2 3 4 5 6 7 8 9 10 11 12 13 14 15
000
FTUS43 KGRR 122300 RRA
TAFLAN
TAF
KLAN 122340Z 1300/1324 21010KT P6SM VCSH SCT025 OVC040
     FM130200 20008KT P6SM -SHRA BKN025 OVC040
     FM130400 21012KT 5SM TSRA BR SCT010 OVC025CB
     FM130800 24012KT 5SM BR VCSH OVC009
     FM131500 27012G22KT P6SM SCT040=

USA.gov is the U.S. government's official web portal to all federal, state and local government web resources and services.